Time;durP1;ratioP1;P1;durP2;ratioP2;P2;SDS_P1;SDS_P2;PMS_P1;PMS_P2;Temp;Humidity;BMP_temperature;BMP_pressure;BME280_temperature;BME280_humidity;BME280_pressure;Samples;Min_cycle;Max_cycle;Signal;HPM_P1;HPM_P2
2022/06/29 00:00:39;;;;;;;9.20;2.40;;;;;;;;;;4944381;28;20206;-75
2022/06/29 00:03:07;;;;;;;8.47;2.30;;;;;;;;;;4940171;28;20207;-75
2022/06/29 00:05:34;;;;;;;5.67;2.17;;;;;;;;;;4941553;28;20226;-74
2022/06/29 00:08:01;;;;;;;4.00;2.20;;;;;;;;;;4940861;28;20209;-75
2022/06/29 00:10:29;;;;;;;8.17;2.20;;;;;;;;;;4938824;28;20293;-75
2022/06/29 00:12:56;;;;;;;4.30;2.30;;;;;;;;;;4941644;28;20215;-75
2022/06/29 00:15:23;;;;;;;8.13;2.20;;;;;;;;;;4943219;28;20219;-75
2022/06/29 00:17:51;;;;;;;10.33;2.30;;;;;;;;;;4941299;28;20298;-75
2022/06/29 00:20:20;;;;;;;3.97;2.33;;;;;;;;;;4936737;28;20353;-75
2022/06/29 00:22:47;;;;;;;5.23;2.30;;;;;;;;;;4941192;28;20233;-75
2022/06/29 00:25:16;;;;;;;3.20;2.03;;;;;;;;;;4940507;28;20234;-75
2022/06/29 00:27:44;;;;;;;4.40;2.20;;;;;;;;;;4938820;28;20641;-75
2022/06/29 00:30:12;;;;;;;6.37;2.07;;;;;;;;;;4942725;28;20223;-75
2022/06/29 00:32:39;;;;;;;4.30;2.13;;;;;;;;;;4941433;28;20828;-75
2022/06/29 00:35:07;;;;;;;2.93;2.33;;;;;;;;;;4938772;28;21012;-75
2022/06/29 00:37:35;;;;;;;4.97;2.47;;;;;;;;;;4940125;28;20222;-75
2022/06/29 00:40:03;;;;;;;3.13;2.13;;;;;;;;;;4944281;28;20215;-75
2022/06/29 00:42:31;;;;;;;3.67;2.10;;;;;;;;;;4940113;28;20213;-75
2022/06/29 00:44:58;;;;;;;5.17;2.27;;;;;;;;;;4940921;28;20234;-75
2022/06/29 00:47:25;;;;;;;4.27;2.40;;;;;;;;;;4942722;28;20214;-75
2022/06/29 00:49:52;;;;;;;11.30;2.40;;;;;;;;;;4943865;28;20253;-74
2022/06/29 00:52:22;;;;;;;4.57;2.10;;;;;;;;;;4945465;28;20674;-75
2022/06/29 00:54:54;;;;;;;6.03;2.33;;;;;;;;;;4939879;28;20239;-75
2022/06/29 00:57:22;;;;;;;4.73;2.20;;;;;;;;;;4944293;28;20753;-75
2022/06/29 00:59:50;;;;;;;7.80;2.37;;;;;;;;;;4946133;28;20289;-75
2022/06/29 01:02:19;;;;;;;7.97;2.50;;;;;;;;;;4948472;28;20206;-75
2022/06/29 01:04:47;;;;;;;3.57;2.10;;;;;;;;;;4942224;28;20238;-75
2022/06/29 01:07:15;;;;;;;7.73;2.10;;;;;;;;;;4949003;28;20199;-75
2022/06/29 01:09:42;;;;;;;5.20;2.10;;;;;;;;;;4942639;28;20214;-75
2022/06/29 01:12:13;;;;;;;11.03;2.27;;;;;;;;;;4945547;28;20207;-75
2022/06/29 01:14:42;;;;;;;5.43;2.30;;;;;;;;;;4945051;28;20776;-75
2022/06/29 01:17:09;;;;;;;7.30;2.47;;;;;;;;;;4942347;28;20780;-75
2022/06/29 01:19:36;;;;;;;3.73;2.40;;;;;;;;;;4943019;28;20627;-75
2022/06/29 01:22:12;;;;;;;3.43;2.20;;;;;;;;;;4944225;28;20207;-75
2022/06/29 01:24:39;;;;;;;4.83;2.20;;;;;;;;;;4944011;28;20232;-74
2022/06/29 01:27:07;;;;;;;4.50;2.50;;;;;;;;;;4945005;28;20214;-74
2022/06/29 01:29:34;;;;;;;6.17;2.23;;;;;;;;;;4942722;28;20237;-74
2022/06/29 01:32:02;;;;;;;4.77;2.30;;;;;;;;;;4942438;28;20333;-75
2022/06/29 01:34:30;;;;;;;5.57;2.40;;;;;;;;;;4940753;28;20222;-75
2022/06/29 01:36:57;;;;;;;5.23;2.30;;;;;;;;;;4943083;28;20293;-75
2022/06/29 01:39:25;;;;;;;3.60;2.37;;;;;;;;;;4940654;28;20208;-75
2022/06/29 01:41:53;;;;;;;6.93;2.20;;;;;;;;;;4945167;28;20207;-75
2022/06/29 01:44:20;;;;;;;6.07;2.57;;;;;;;;;;4948850;28;20246;-74
2022/06/29 01:46:47;;;;;;;3.80;2.37;;;;;;;;;;4940144;28;20210;-75
2022/06/29 01:49:14;;;;;;;5.83;2.33;;;;;;;;;;4947002;28;20314;-74
2022/06/29 01:51:42;;;;;;;8.47;2.50;;;;;;;;;;4945032;28;20198;-74
2022/06/29 01:54:09;;;;;;;4.43;2.33;;;;;;;;;;4945213;28;20234;-73
2022/06/29 01:56:37;;;;;;;4.93;2.23;;;;;;;;;;4943465;28;20199;-74
2022/06/29 01:59:05;;;;;;;3.57;2.40;;;;;;;;;;4944160;28;20206;-74
2022/06/29 02:01:32;;;;;;;4.00;2.37;;;;;;;;;;4945412;28;20198;-74
2022/06/29 02:03:59;;;;;;;5.10;1.90;;;;;;;;;;4940577;28;20232;-74
2022/06/29 02:06:26;;;;;;;4.40;2.27;;;;;;;;;;4942978;28;20270;-74
2022/06/29 02:08:53;;;;;;;3.70;2.13;;;;;;;;;;4941312;28;20207;-74
2022/06/29 02:11:21;;;;;;;5.63;2.40;;;;;;;;;;4948864;28;20222;-74
2022/06/29 02:13:49;;;;;;;3.70;2.53;;;;;;;;;;4946288;28;20226;-74
2022/06/29 02:16:16;;;;;;;7.40;2.63;;;;;;;;;;4946778;28;20210;-74
2022/06/29 02:18:44;;;;;;;5.97;2.33;;;;;;;;;;4942163;28;20234;-74
2022/06/29 02:21:11;;;;;;;2.83;2.17;;;;;;;;;;4944379;28;20215;-74
2022/06/29 02:23:38;;;;;;;5.10;2.27;;;;;;;;;;4943874;28;20680;-74
2022/06/29 02:26:06;;;;;;;5.17;2.33;;;;;;;;;;4945362;28;20294;-73
2022/06/29 02:28:33;;;;;;;4.83;2.40;;;;;;;;;;4940120;28;20210;-73
2022/06/29 02:36:31;;;;;;;3.20;2.10;;;;;;;;;;4941161;28;20205;-74
2022/06/29 02:38:59;;;;;;;3.40;2.17;;;;;;;;;;4940975;28;20214;-73
2022/06/29 02:41:26;;;;;;;5.57;2.50;;;;;;;;;;4940686;28;20206;-74
2022/06/29 02:43:53;;;;;;;3.77;2.40;;;;;;;;;;4940008;28;20226;-74
2022/06/29 02:46:22;;;;;;;4.33;2.70;;;;;;;;;;4942696;28;20218;-74
2022/06/29 02:48:49;;;;;;;2.97;2.10;;;;;;;;;;4938200;28;20214;-73
2022/06/29 02:51:16;;;;;;;4.53;2.20;;;;;;;;;;4944853;28;20705;-74
2022/06/29 02:53:43;;;;;;;5.90;2.50;;;;;;;;;;4939488;28;20249;-74
2022/06/29 02:56:10;;;;;;;4.47;2.50;;;;;;;;;;4938721;28;20209;-73
2022/06/29 02:58:37;;;;;;;7.90;2.80;;;;;;;;;;4941109;28;20210;-74
2022/06/29 03:01:04;;;;;;;3.77;2.40;;;;;;;;;;4941086;28;20654;-74
2022/06/29 03:03:33;;;;;;;4.93;2.40;;;;;;;;;;4944034;28;20670;-74
2022/06/29 03:06:00;;;;;;;6.73;2.13;;;;;;;;;;4944581;28;20214;-73
2022/06/29 03:08:28;;;;;;;5.63;2.40;;;;;;;;;;4941481;28;20214;-74
2022/06/29 03:10:55;;;;;;;8.03;2.87;;;;;;;;;;4939182;28;20266;-74
2022/06/29 03:13:22;;;;;;;5.87;2.80;;;;;;;;;;4942343;28;20208;-74
2022/06/29 03:15:49;;;;;;;7.57;2.47;;;;;;;;;;4941817;28;20213;-74
2022/06/29 03:18:17;;;;;;;5.77;2.67;;;;;;;;;;4943319;28;20210;-73
2022/06/29 03:20:45;;;;;;;4.33;2.27;;;;;;;;;;4944971;28;20659;-74
2022/06/29 03:23:12;;;;;;;7.47;2.73;;;;;;;;;;4943725;28;20211;-74
2022/06/29 03:25:39;;;;;;;6.67;2.57;;;;;;;;;;4941719;28;20258;-74
2022/06/29 03:28:07;;;;;;;7.93;2.40;;;;;;;;;;4945556;28;20677;-74
2022/06/29 03:30:34;;;;;;;9.90;2.83;;;;;;;;;;4948155;28;20270;-74
2022/06/29 03:33:01;;;;;;;5.60;2.40;;;;;;;;;;4947131;28;20213;-74
2022/06/29 03:35:28;;;;;;;6.13;2.70;;;;;;;;;;4945776;28;20317;-74
2022/06/29 03:37:57;;;;;;;4.47;2.20;;;;;;;;;;4942736;28;20217;-73
2022/06/29 03:40:24;;;;;;;4.20;2.23;;;;;;;;;;4940066;28;20593;-74
2022/06/29 03:42:51;;;;;;;7.57;2.80;;;;;;;;;;4944288;28;20773;-74
2022/06/29 03:45:19;;;;;;;5.20;2.60;;;;;;;;;;4940991;28;20230;-73
2022/06/29 03:47:47;;;;;;;7.90;2.57;;;;;;;;;;4941350;28;20749;-74
2022/06/29 03:50:15;;;;;;;4.40;2.30;;;;;;;;;;4946307;28;20234;-73
2022/06/29 03:52:42;;;;;;;5.70;2.50;;;;;;;;;;4945793;28;20211;-74
2022/06/29 03:55:11;;;;;;;9.93;2.83;;;;;;;;;;4938281;28;20708;-74
2022/06/29 03:57:38;;;;;;;4.23;2.60;;;;;;;;;;4941595;28;20299;-74
2022/06/29 04:00:06;;;;;;;6.53;2.27;;;;;;;;;;4944308;28;20285;-74
2022/06/29 04:02:33;;;;;;;5.00;2.60;;;;;;;;;;4941927;28;20214;-74
2022/06/29 04:05:00;;;;;;;7.80;2.50;;;;;;;;;;4936427;28;20231;-74
2022/06/29 04:07:27;;;;;;;5.40;2.10;;;;;;;;;;4941845;28;20228;-74
2022/06/29 04:09:59;;;;;;;6.50;2.37;;;;;;;;;;4939722;28;20675;-73
2022/06/29 04:12:28;;;;;;;14.53;2.80;;;;;;;;;;4946900;28;20603;-74
2022/06/29 04:14:55;;;;;;;10.83;2.67;;;;;;;;;;4938146;28;20234;-73
2022/06/29 04:17:22;;;;;;;6.47;2.80;;;;;;;;;;4943709;28;20220;-74
2022/06/29 04:19:51;;;;;;;5.90;2.73;;;;;;;;;;4941341;28;20203;-74
2022/06/29 04:22:18;;;;;;;7.63;2.43;;;;;;;;;;4944344;28;20202;-74
2022/06/29 04:24:45;;;;;;;4.07;2.57;;;;;;;;;;4945563;28;20841;-76
2022/06/29 04:27:12;;;;;;;5.43;3.13;;;;;;;;;;4943883;28;20198;-74
2022/06/29 04:29:40;;;;;;;6.53;2.70;;;;;;;;;;4945174;28;20795;-74
2022/06/29 04:32:08;;;;;;;7.60;2.90;;;;;;;;;;4939485;28;20749;-74
2022/06/29 04:34:35;;;;;;;9.40;2.50;;;;;;;;;;4944916;28;20222;-74
2022/06/29 04:37:02;;;;;;;6.57;2.73;;;;;;;;;;4945440;28;20213;-74
2022/06/29 04:39:30;;;;;;;6.90;2.80;;;;;;;;;;4946279;28;20293;-74
2022/06/29 04:41:57;;;;;;;4.37;2.37;;;;;;;;;;4948741;28;20207;-73
2022/06/29 04:44:25;;;;;;;5.37;2.43;;;;;;;;;;4950400;28;20233;-74
2022/06/29 04:46:54;;;;;;;7.97;2.50;;;;;;;;;;4943344;28;20202;-75
2022/06/29 04:49:22;;;;;;;5.90;2.20;;;;;;;;;;4944068;28;20202;-73
2022/06/29 04:51:50;;;;;;;6.97;2.53;;;;;;;;;;4944186;28;20258;-74
2022/06/29 04:54:17;;;;;;;8.00;2.23;;;;;;;;;;4946377;28;20254;-74
2022/06/29 04:56:44;;;;;;;6.77;2.60;;;;;;;;;;4946718;28;20211;-74
2022/06/29 04:59:11;;;;;;;6.63;2.70;;;;;;;;;;4945113;28;20589;-76
2022/06/29 05:01:38;;;;;;;5.27;2.53;;;;;;;;;;4945180;28;20210;-75
2022/06/29 05:04:07;;;;;;;8.17;2.60;;;;;;;;;;4952575;28;20313;-75
2022/06/29 05:06:34;;;;;;;11.53;2.67;;;;;;;;;;4941477;28;20206;-75
2022/06/29 05:09:01;;;;;;;7.57;2.57;;;;;;;;;;4946450;28;20513;-75
2022/06/29 05:11:28;;;;;;;3.93;2.70;;;;;;;;;;4942907;28;20568;-75
2022/06/29 05:13:56;;;;;;;7.53;2.57;;;;;;;;;;4941677;28;20324;-75
2022/06/29 05:16:23;;;;;;;6.63;2.30;;;;;;;;;;4943319;28;20213;-74
2022/06/29 05:18:50;;;;;;;9.40;2.60;;;;;;;;;;4942117;28;20207;-74
2022/06/29 05:21:19;;;;;;;5.00;2.10;;;;;;;;;;4942084;28;20304;-75
2022/06/29 05:23:46;;;;;;;5.33;2.60;;;;;;;;;;4941707;28;20229;-75
2022/06/29 05:26:14;;;;;;;4.43;2.50;;;;;;;;;;4946195;28;20210;-74
2022/06/29 05:28:41;;;;;;;6.20;2.60;;;;;;;;;;4946216;28;20214;-75
2022/06/29 05:31:08;;;;;;;3.60;2.60;;;;;;;;;;4943470;28;20223;-75
2022/06/29 05:33:38;;;;;;;3.23;2.40;;;;;;;;;;4946245;28;20217;-75
2022/06/29 05:36:06;;;;;;;7.00;2.87;;;;;;;;;;4945047;28;20213;-75
2022/06/29 05:38:35;;;;;;;8.43;2.70;;;;;;;;;;4942835;28;20203;-75
2022/06/29 05:41:02;;;;;;;8.83;2.50;;;;;;;;;;4944873;28;20198;-75
2022/06/29 05:43:30;;;;;;;6.17;2.60;;;;;;;;;;4943043;28;20235;-75
2022/06/29 05:45:57;;;;;;;5.73;2.30;;;;;;;;;;4944463;28;20203;-75
2022/06/29 05:48:25;;;;;;;7.23;2.20;;;;;;;;;;4945240;28;20207;-75
2022/06/29 05:50:52;;;;;;;4.50;2.13;;;;;;;;;;4947954;28;20285;-75
2022/06/29 05:53:19;;;;;;;5.50;2.53;;;;;;;;;;4942293;28;20207;-75
2022/06/29 05:55:48;;;;;;;4.30;2.40;;;;;;;;;;4945773;28;20226;-75
2022/06/29 05:58:19;;;;;;;3.97;2.60;;;;;;;;;;4942438;28;20688;-75
2022/06/29 06:00:46;;;;;;;6.97;2.70;;;;;;;;;;4943209;28;21792;-75
2022/06/29 06:03:13;;;;;;;6.70;2.67;;;;;;;;;;4944766;28;20750;-75
2022/06/29 06:05:40;;;;;;;10.27;2.83;;;;;;;;;;4942654;28;20221;-75
2022/06/29 06:08:07;;;;;;;7.40;2.50;;;;;;;;;;4941694;28;20658;-75
2022/06/29 06:10:34;;;;;;;6.27;2.50;;;;;;;;;;4944755;28;20228;-73
2022/06/29 06:13:05;;;;;;;6.83;2.50;;;;;;;;;;4949367;28;20221;-75
2022/06/29 06:15:32;;;;;;;12.73;2.90;;;;;;;;;;4938031;28;20246;-75
2022/06/29 06:17:59;;;;;;;5.30;2.20;;;;;;;;;;4939759;28;20199;-75
2022/06/29 06:20:27;;;;;;;12.37;2.60;;;;;;;;;;4943458;28;20771;-75
2022/06/29 06:22:54;;;;;;;9.13;2.53;;;;;;;;;;4941346;28;20211;-75
2022/06/29 06:25:21;;;;;;;8.83;3.00;;;;;;;;;;4942128;28;20313;-75
2022/06/29 06:27:48;;;;;;;5.90;2.70;;;;;;;;;;4941241;28;20213;-74
2022/06/29 06:30:17;;;;;;;8.13;3.10;;;;;;;;;;4951454;28;20209;-75
2022/06/29 06:32:44;;;;;;;5.87;2.43;;;;;;;;;;4941894;28;20237;-74
2022/06/29 06:35:11;;;;;;;6.43;3.07;;;;;;;;;;4938268;28;20277;-75
2022/06/29 06:37:38;;;;;;;11.57;3.30;;;;;;;;;;4938868;28;20202;-75
2022/06/29 06:42:51;;;;;;;6.87;2.90;;;;;;;;;;4941869;28;20209;-74
2022/06/29 06:45:20;;;;;;;21.93;3.27;;;;;;;;;;4936897;28;20718;-74
2022/06/29 06:47:47;;;;;;;13.70;2.67;;;;;;;;;;4940663;28;20662;-74
2022/06/29 06:50:14;;;;;;;5.23;2.57;;;;;;;;;;4941328;28;20844;-74
2022/06/29 06:52:42;;;;;;;8.53;2.43;;;;;;;;;;4935258;28;20202;-74
2022/06/29 06:55:09;;;;;;;5.27;2.53;;;;;;;;;;4945989;28;20327;-74
2022/06/29 06:57:36;;;;;;;4.83;2.50;;;;;;;;;;4941489;28;20203;-74
2022/06/29 07:00:04;;;;;;;13.33;3.10;;;;;;;;;;4940747;28;20555;-75
2022/06/29 07:02:32;;;;;;;10.20;3.03;;;;;;;;;;4940962;28;20287;-74
2022/06/29 07:05:00;;;;;;;5.63;2.17;;;;;;;;;;4944943;28;20342;-75
2022/06/29 07:07:27;;;;;;;14.40;2.47;;;;;;;;;;4943360;28;20213;-74
2022/06/29 07:09:54;;;;;;;6.83;2.67;;;;;;;;;;4939855;28;20202;-74
2022/06/29 07:12:21;;;;;;;5.00;2.53;;;;;;;;;;4934224;28;20317;-75
2022/06/29 07:14:48;;;;;;;15.20;2.70;;;;;;;;;;4943124;28;20266;-74
2022/06/29 07:17:15;;;;;;;11.03;3.17;;;;;;;;;;4942510;28;20225;-75
2022/06/29 07:19:44;;;;;;;6.10;2.70;;;;;;;;;;4942891;28;20294;-75
2022/06/29 07:22:11;;;;;;;7.00;2.87;;;;;;;;;;4943029;28;20194;-75
2022/06/29 07:24:38;;;;;;;10.23;2.50;;;;;;;;;;4941527;28;20223;-75
2022/06/29 07:27:05;;;;;;;6.87;2.73;;;;;;;;;;4938720;28;20293;-74
2022/06/29 07:29:32;;;;;;;4.90;2.60;;;;;;;;;;4939078;28;20707;-75
2022/06/29 07:32:00;;;;;;;5.90;2.33;;;;;;;;;;4940848;28;20222;-75
2022/06/29 07:34:27;;;;;;;7.03;2.43;;;;;;;;;;4941929;28;20222;-75
2022/06/29 07:36:55;;;;;;;5.53;2.43;;;;;;;;;;4939241;28;20207;-75
2022/06/29 07:39:22;;;;;;;6.13;2.10;;;;;;;;;;4939605;28;20218;-75
2022/06/29 07:41:49;;;;;;;6.27;2.50;;;;;;;;;;4937843;28;20257;-75
2022/06/29 07:44:17;;;;;;;4.23;2.00;;;;;;;;;;4942487;28;20731;-75
2022/06/29 07:46:44;;;;;;;5.37;2.40;;;;;;;;;;4941768;28;20505;-75
2022/06/29 07:49:11;;;;;;;4.27;2.17;;;;;;;;;;4938295;28;20203;-75
2022/06/29 07:51:38;;;;;;;6.33;2.37;;;;;;;;;;4938599;28;20314;-75
2022/06/29 07:54:07;;;;;;;6.03;2.47;;;;;;;;;;4946575;28;20237;-75
2022/06/29 07:56:36;;;;;;;6.30;2.37;;;;;;;;;;4941618;28;20217;-75
2022/06/29 07:59:03;;;;;;;9.27;2.73;;;;;;;;;;4943491;28;20221;-75
2022/06/29 08:01:30;;;;;;;4.23;2.27;;;;;;;;;;4944632;28;20222;-74
2022/06/29 08:03:57;;;;;;;6.80;2.50;;;;;;;;;;4940323;28;20226;-74
2022/06/29 08:06:24;;;;;;;5.53;2.70;;;;;;;;;;4948138;28;20203;-74
2022/06/29 08:08:52;;;;;;;7.53;2.47;;;;;;;;;;4944412;28;20210;-75
2022/06/29 08:11:20;;;;;;;5.63;2.30;;;;;;;;;;4945616;28;20237;-75
2022/06/29 08:13:48;;;;;;;7.43;2.77;;;;;;;;;;4946656;28;20221;-75
2022/06/29 08:16:15;;;;;;;5.07;2.50;;;;;;;;;;4948487;28;20308;-74
2022/06/29 08:18:43;;;;;;;3.73;2.57;;;;;;;;;;4946481;28;20420;-74
2022/06/29 08:21:10;;;;;;;3.60;2.57;;;;;;;;;;4947196;28;20203;-75
2022/06/29 08:23:37;;;;;;;5.67;3.00;;;;;;;;;;4944978;28;20205;-75
2022/06/29 08:26:05;;;;;;;4.87;2.30;;;;;;;;;;4949183;28;20695;-75
2022/06/29 08:28:33;;;;;;;3.43;2.30;;;;;;;;;;4946233;28;20658;-74
2022/06/29 08:31:00;;;;;;;5.87;2.50;;;;;;;;;;4947998;28;20300;-75
2022/06/29 08:33:27;;;;;;;3.97;2.40;;;;;;;;;;4942979;28;20289;-76
2022/06/29 08:35:55;;;;;;;6.87;2.50;;;;;;;;;;4946951;28;20298;-75
2022/06/29 08:38:22;;;;;;;4.93;2.30;;;;;;;;;;4943806;28;20549;-75
2022/06/29 08:40:50;;;;;;;5.43;2.30;;;;;;;;;;4944965;28;20214;-75
2022/06/29 08:43:17;;;;;;;9.20;2.40;;;;;;;;;;4944998;28;20214;-75
2022/06/29 08:45:47;;;;;;;4.03;2.50;;;;;;;;;;4943389;28;20332;-75
2022/06/29 08:48:14;;;;;;;7.20;2.67;;;;;;;;;;4942559;28;20207;-75
2022/06/29 08:50:43;;;;;;;3.23;2.30;;;;;;;;;;4941486;28;20212;-75
2022/06/29 08:53:13;;;;;;;6.53;2.30;;;;;;;;;;4942658;28;20699;-75
2022/06/29 08:55:43;;;;;;;4.83;2.50;;;;;;;;;;4947369;28;20228;-75
2022/06/29 08:58:11;;;;;;;4.20;2.40;;;;;;;;;;4943305;28;20214;-75
2022/06/29 09:00:38;;;;;;;8.70;2.67;;;;;;;;;;4944062;28;20209;-75
2022/06/29 09:03:07;;;;;;;3.30;2.60;;;;;;;;;;4943391;28;20205;-75
2022/06/29 09:05:34;;;;;;;5.40;2.90;;;;;;;;;;4944746;28;20229;-75
2022/06/29 09:08:02;;;;;;;3.40;2.30;;;;;;;;;;4946854;28;20202;-75
2022/06/29 09:10:30;;;;;;;5.67;2.70;;;;;;;;;;4946203;28;20212;-75
2022/06/29 09:12:58;;;;;;;3.90;2.57;;;;;;;;;;4945340;28;20785;-75
2022/06/29 09:15:31;;;;;;;8.70;2.87;;;;;;;;;;4948258;28;20703;-75
2022/06/29 09:17:58;;;;;;;6.33;2.80;;;;;;;;;;4947883;28;20210;-75
2022/06/29 09:20:37;;;;;;;7.13;2.77;;;;;;;;;;4942267;28;21674;-75
2022/06/29 09:23:05;;;;;;;6.33;3.17;;;;;;;;;;4946577;28;20202;-75
2022/06/29 09:25:32;;;;;;;8.73;3.20;;;;;;;;;;4943437;28;20234;-75
2022/06/29 09:28:00;;;;;;;5.63;2.97;;;;;;;;;;4943781;28;20296;-75
2022/06/29 09:30:27;;;;;;;7.80;2.60;;;;;;;;;;4941778;28;20758;-75
2022/06/29 09:33:04;;;;;;;5.67;2.80;;;;;;;;;;4944845;28;20229;-75
2022/06/29 09:35:33;;;;;;;6.70;3.13;;;;;;;;;;4946295;28;20230;-75
2022/06/29 09:38:18;;;;;;;3.73;3.10;;;;;;;;;;4943733;28;20205;-75
2022/06/29 09:40:58;;;;;;;7.57;3.33;;;;;;;;;;4939378;28;20210;-74
2022/06/29 09:43:25;;;;;;;4.37;3.27;;;;;;;;;;4946922;28;20202;-75
2022/06/29 09:45:54;;;;;;;5.33;3.50;;;;;;;;;;4940252;28;20213;-75
2022/06/29 09:48:23;;;;;;;5.93;3.23;;;;;;;;;;4937849;28;20215;-75
2022/06/29 09:50:52;;;;;;;8.10;3.57;;;;;;;;;;4939539;28;20919;-75
2022/06/29 09:53:19;;;;;;;5.37;4.13;;;;;;;;;;4938669;28;20238;-75
2022/06/29 09:55:48;;;;;;;5.07;3.83;;;;;;;;;;4938679;28;20238;-75
2022/06/29 09:58:16;;;;;;;8.43;3.93;;;;;;;;;;4942599;28;20400;-75
2022/06/29 10:03:29;;;;;;;4.90;4.07;;;;;;;;;;4939388;28;20675;-75
2022/06/29 10:06:04;;;;;;;8.30;4.20;;;;;;;;;;4940436;28;20202;-75
2022/06/29 10:08:33;;;;;;;4.93;4.30;;;;;;;;;;4941048;28;20285;-75
2022/06/29 10:13:39;;;;;;;7.23;4.57;;;;;;;;;;4939097;28;20651;-73
2022/06/29 10:13:54;;;;;;;6.60;4.60;;;;;;;;;;4943832;28;20627;-75
2022/06/29 10:16:25;;;;;;;5.63;4.40;;;;;;;;;;4943051;28;20206;-75
2022/06/29 10:18:57;;;;;;;6.10;4.50;;;;;;;;;;4937747;28;20211;-75
2022/06/29 10:21:28;;;;;;;5.30;4.70;;;;;;;;;;4940630;28;20220;-75
2022/06/29 10:23:56;;;;;;;5.97;5.20;;;;;;;;;;4940919;28;20225;-75
2022/06/29 10:26:38;;;;;;;6.17;5.27;;;;;;;;;;4946304;28;20203;-75
2022/06/29 10:29:20;;;;;;;6.97;5.10;;;;;;;;;;4936089;28;20206;-75
2022/06/29 10:32:00;;;;;;;7.87;5.20;;;;;;;;;;4942639;28;20221;-75
2022/06/29 10:35:04;;;;;;;12.93;5.50;;;;;;;;;;4935195;28;20261;-74
2022/06/29 10:37:30;;;;;;;9.20;4.90;;;;;;;;;;4939704;28;20286;-75
2022/06/29 10:40:00;;;;;;;6.87;5.73;;;;;;;;;;4934372;28;20705;-74
2022/06/29 10:45:40;;;;;;;7.53;5.10;;;;;;;;;;4940771;28;20228;-75
2022/06/29 10:48:15;;;;;;;11.10;6.03;;;;;;;;;;4939069;28;20207;-75
2022/06/29 10:50:43;;;;;;;9.73;6.03;;;;;;;;;;4939061;28;20199;-74
2022/06/29 10:53:12;;;;;;;6.93;5.57;;;;;;;;;;4938400;28;20225;-74
2022/06/29 10:55:40;;;;;;;7.97;5.73;;;;;;;;;;4940170;28;20740;-75
2022/06/29 10:58:08;;;;;;;9.23;5.60;;;;;;;;;;4939029;28;20646;-74
2022/06/29 11:00:38;;;;;;;7.50;5.70;;;;;;;;;;4934954;28;20299;-75
2022/06/29 11:03:10;;;;;;;8.30;5.50;;;;;;;;;;4942870;28;20198;-74
2022/06/29 11:05:38;;;;;;;9.17;5.20;;;;;;;;;;4942490;28;20316;-75
2022/06/29 11:13:38;;;;;;;7.17;5.50;;;;;;;;;;4934950;28;20229;-75
2022/06/29 11:16:07;;;;;;;9.13;5.30;;;;;;;;;;4940505;28;20266;-75
2022/06/29 11:18:34;;;;;;;8.73;5.50;;;;;;;;;;4938207;28;20215;-75
2022/06/29 11:21:03;;;;;;;7.13;5.47;;;;;;;;;;4933494;28;20298;-74
2022/06/29 11:23:31;;;;;;;9.53;6.07;;;;;;;;;;4942842;28;20199;-75
2022/06/29 11:26:00;;;;;;;7.50;5.30;;;;;;;;;;4939720;28;20205;-76
2022/06/29 11:28:28;;;;;;;13.27;5.43;;;;;;;;;;4935721;28;20290;-73
2022/06/29 11:31:02;;;;;;;7.83;5.70;;;;;;;;;;4936145;28;20317;-74
2022/06/29 11:33:30;;;;;;;6.57;5.57;;;;;;;;;;4940137;28;20324;-74
2022/06/29 11:35:57;;;;;;;8.07;6.07;;;;;;;;;;4942421;28;20203;-74
2022/06/29 11:38:28;;;;;;;8.47;6.00;;;;;;;;;;4941869;28;20309;-74
2022/06/29 11:40:55;;;;;;;6.83;5.23;;;;;;;;;;4936821;28;20258;-74
2022/06/29 11:43:24;;;;;;;7.47;5.37;;;;;;;;;;4936706;28;20213;-74
2022/06/29 11:45:52;;;;;;;6.90;5.60;;;;;;;;;;4938770;28;20214;-74
2022/06/29 11:48:20;;;;;;;6.73;5.30;;;;;;;;;;4942045;28;20211;-74
2022/06/29 11:50:49;;;;;;;7.30;4.90;;;;;;;;;;4942491;28;20254;-74
2022/06/29 11:53:30;;;;;;;6.70;4.70;;;;;;;;;;4937063;28;20218;-74
2022/06/29 11:55:58;;;;;;;6.13;5.07;;;;;;;;;;4937936;28;20321;-74
2022/06/29 11:58:27;;;;;;;7.37;5.30;;;;;;;;;;4941515;28;20207;-74
2022/06/29 12:00:55;;;;;;;6.80;5.27;;;;;;;;;;4940845;28;20211;-74
2022/06/29 12:03:22;;;;;;;10.03;5.20;;;;;;;;;;4939921;28;20206;-74
2022/06/29 12:05:57;;;;;;;8.53;4.50;;;;;;;;;;4938284;28;20720;-74
2022/06/29 12:08:24;;;;;;;7.47;4.73;;;;;;;;;;4939604;28;20282;-74
2022/06/29 12:10:51;;;;;;;9.40;5.50;;;;;;;;;;4940128;28;20217;-74
2022/06/29 12:13:19;;;;;;;7.27;5.20;;;;;;;;;;4938756;28;20578;-74
2022/06/29 12:15:48;;;;;;;5.87;4.90;;;;;;;;;;4938149;28;20405;-74
2022/06/29 12:18:16;;;;;;;8.40;5.60;;;;;;;;;;4940100;28;20210;-74
2022/06/29 12:20:43;;;;;;;6.70;5.60;;;;;;;;;;4937038;28;20207;-74
2022/06/29 12:23:10;;;;;;;6.57;4.77;;;;;;;;;;4943341;28;20306;-73
2022/06/29 12:25:37;;;;;;;6.47;4.77;;;;;;;;;;4934734;28;20231;-74
2022/06/29 12:28:04;;;;;;;8.27;5.00;;;;;;;;;;4939025;28;20701;-75
2022/06/29 12:30:32;;;;;;;7.37;5.00;;;;;;;;;;4938207;28;20214;-74
2022/06/29 12:33:00;;;;;;;7.97;4.97;;;;;;;;;;4941659;28;20250;-74
2022/06/29 12:35:28;;;;;;;6.30;4.77;;;;;;;;;;4936645;28;20803;-74
2022/06/29 12:37:57;;;;;;;5.43;4.70;;;;;;;;;;4939754;28;20219;-74
2022/06/29 12:40:25;;;;;;;10.47;4.97;;;;;;;;;;4939167;28;21708;-74
2022/06/29 12:42:52;;;;;;;9.70;4.40;;;;;;;;;;4936445;28;20202;-74
2022/06/29 12:45:20;;;;;;;9.73;4.53;;;;;;;;;;4939056;28;20222;-75
2022/06/29 12:47:47;;;;;;;5.27;4.47;;;;;;;;;;4938119;28;20613;-74
2022/06/29 12:50:16;;;;;;;5.57;4.27;;;;;;;;;;4936965;28;20214;-74
2022/06/29 12:52:46;;;;;;;5.00;4.50;;;;;;;;;;4936191;28;20253;-74
2022/06/29 12:55:13;;;;;;;5.67;5.00;;;;;;;;;;4938593;28;20788;-74
2022/06/29 12:57:41;;;;;;;6.37;4.57;;;;;;;;;;4940182;28;20238;-74
2022/06/29 13:00:08;;;;;;;6.57;4.80;;;;;;;;;;4940032;28;20403;-73
2022/06/29 13:02:35;;;;;;;6.10;4.70;;;;;;;;;;4940260;28;20218;-74
2022/06/29 13:05:03;;;;;;;7.63;5.10;;;;;;;;;;4939631;28;20274;-74
2022/06/29 13:07:32;;;;;;;9.10;4.67;;;;;;;;;;4940352;28;20203;-74
2022/06/29 13:10:00;;;;;;;8.33;4.50;;;;;;;;;;4939177;28;20261;-74
2022/06/29 13:12:27;;;;;;;5.90;4.33;;;;;;;;;;4941267;28;20245;-75
2022/06/29 13:14:55;;;;;;;6.53;4.60;;;;;;;;;;4936619;28;20665;-74
2022/06/29 13:17:22;;;;;;;8.53;4.13;;;;;;;;;;4939273;28;20563;-77
2022/06/29 13:19:49;;;;;;;7.50;4.80;;;;;;;;;;4942990;28;20218;-75
2022/06/29 13:22:17;;;;;;;6.70;4.57;;;;;;;;;;4942152;28;20474;-74
2022/06/29 13:24:47;;;;;;;6.63;4.50;;;;;;;;;;4941351;28;20231;-74
2022/06/29 13:27:14;;;;;;;5.17;4.30;;;;;;;;;;4932373;28;20263;-74
2022/06/29 13:29:41;;;;;;;16.57;6.27;;;;;;;;;;4943931;28;20306;-75
2022/06/29 13:32:08;;;;;;;12.93;4.73;;;;;;;;;;4943663;28;20234;-74
2022/06/29 13:34:36;;;;;;;7.20;4.53;;;;;;;;;;4937247;28;20261;-74
2022/06/29 13:37:03;;;;;;;7.70;4.83;;;;;;;;;;4936848;28;20558;-74
2022/06/29 13:39:30;;;;;;;9.73;5.00;;;;;;;;;;4933399;28;20302;-74
2022/06/29 13:42:01;;;;;;;6.07;4.50;;;;;;;;;;4932458;28;20700;-75
2022/06/29 13:44:28;;;;;;;8.97;4.60;;;;;;;;;;4934096;28;20409;-74
2022/06/29 13:46:55;;;;;;;8.30;4.60;;;;;;;;;;4936110;28;20663;-75
2022/06/29 13:49:23;;;;;;;11.23;5.00;;;;;;;;;;4938821;28;20293;-75
2022/06/29 13:51:51;;;;;;;9.37;4.67;;;;;;;;;;4939940;28;20216;-74
2022/06/29 13:54:18;;;;;;;6.37;4.50;;;;;;;;;;4940601;28;20239;-74
2022/06/29 13:56:45;;;;;;;9.07;4.70;;;;;;;;;;4945010;28;20688;-75
2022/06/29 13:59:14;;;;;;;8.00;4.77;;;;;;;;;;4944077;28;20678;-74
2022/06/29 14:01:41;;;;;;;8.13;4.90;;;;;;;;;;4934362;28;20278;-75
2022/06/29 14:04:09;;;;;;;9.33;4.90;;;;;;;;;;4943204;28;20495;-75
2022/06/29 14:06:36;;;;;;;6.53;4.60;;;;;;;;;;4941780;28;20861;-75
2022/06/29 14:09:04;;;;;;;6.77;4.70;;;;;;;;;;4944218;28;20219;-75
2022/06/29 14:11:31;;;;;;;5.67;4.60;;;;;;;;;;4939706;28;20965;-74
2022/06/29 14:13:58;;;;;;;8.23;4.60;;;;;;;;;;4941888;28;20310;-75
2022/06/29 14:16:27;;;;;;;6.07;4.70;;;;;;;;;;4940540;28;20211;-74
2022/06/29 14:18:54;;;;;;;8.47;5.00;;;;;;;;;;4941719;28;20294;-74
2022/06/29 14:21:21;;;;;;;5.83;5.10;;;;;;;;;;4934359;28;20208;-74
2022/06/29 14:23:49;;;;;;;6.00;4.30;;;;;;;;;;4943877;28;20307;-74
2022/06/29 14:26:17;;;;;;;5.27;4.77;;;;;;;;;;4943506;28;20208;-74
2022/06/29 14:28:44;;;;;;;7.80;4.60;;;;;;;;;;4937320;28;20214;-74
2022/06/29 14:31:11;;;;;;;11.03;5.00;;;;;;;;;;4939707;28;20208;-74
2022/06/29 14:33:40;;;;;;;8.00;4.93;;;;;;;;;;4936634;28;20604;-75
2022/06/29 14:36:07;;;;;;;7.50;4.70;;;;;;;;;;4940859;28;20240;-74
2022/06/29 14:38:34;;;;;;;8.60;4.83;;;;;;;;;;4936377;28;20211;-74
2022/06/29 14:41:01;;;;;;;8.17;4.90;;;;;;;;;;4936401;28;20215;-74
2022/06/29 14:43:28;;;;;;;7.97;4.93;;;;;;;;;;4937043;28;20234;-74
2022/06/29 14:45:56;;;;;;;8.47;4.80;;;;;;;;;;4938532;28;20219;-74
2022/06/29 14:48:23;;;;;;;6.67;4.80;;;;;;;;;;4937801;28;20290;-74
2022/06/29 14:50:52;;;;;;;8.07;4.80;;;;;;;;;;4938841;28;20610;-74
2022/06/29 14:53:19;;;;;;;8.73;4.83;;;;;;;;;;4937338;28;20257;-75
2022/06/29 14:55:47;;;;;;;7.20;5.00;;;;;;;;;;4938883;28;20256;-74
2022/06/29 14:58:14;;;;;;;10.83;4.83;;;;;;;;;;4938890;28;20207;-74
2022/06/29 15:00:42;;;;;;;6.80;4.90;;;;;;;;;;4941801;28;20218;-74
2022/06/29 15:03:09;;;;;;;7.03;4.77;;;;;;;;;;4942103;28;20238;-74
2022/06/29 15:05:36;;;;;;;6.90;5.37;;;;;;;;;;4939975;28;20233;-74
2022/06/29 15:08:05;;;;;;;7.97;4.87;;;;;;;;;;4941950;28;20222;-74